Time;durP1;ratioP1;P1;durP2;ratioP2;P2;SDS_P1;SDS_P2;PMS_P1;PMS_P2;Temp;Humidity;BMP_temperature;BMP_pressure;BME280_temperature;BME280_humidity;BME280_pressure;Samples;Min_cycle;Max_cycle;Signal;HPM_P1;HPM_P2
2022/12/06 07:56:59;;;;;;;;;;;;;;;7.69;62.74;96974.00;4216940;27;10426;-76
2022/12/06 07:59:02;;;;;;;;;;;;;;;7.98;62.23;96965.50;4223675;28;5741;-77
2022/12/06 08:01:05;;;;;;;;;;;;;;;8.21;61.76;96978.72;4222433;28;5811;-76
2022/12/06 08:03:08;;;;;;;;;;;;;;;8.39;61.60;96972.22;4226380;28;5636;-77
2022/12/06 08:05:12;;;;;;;;;;;;;;;8.51;61.22;96970.00;4221618;28;6313;-76
2022/12/06 08:07:15;;;;;;;;;;;;;;;8.62;60.83;96977.47;4213928;28;5608;-75
2022/12/06 08:09:18;;;;;;;;;;;;;;;8.70;60.71;96974.75;4224297;28;6446;-76
2022/12/06 08:11:23;;;;;;;;;;;;;;;8.79;60.56;96967.63;4227179;28;5757;-76
2022/12/06 08:13:27;;;;;;;;;;;;;;;8.88;60.10;96971.00;4228075;28;5624;-75
2022/12/06 08:15:30;;;;;;;;;;;;;;;8.94;60.07;96967.66;4217785;28;5643;-77
2022/12/06 08:17:33;;;;;;;;;;;;;;;8.99;60.06;96968.75;4219630;28;5707;-76
2022/12/06 08:19:36;;;;;;;;;;;;;;;9.05;60.13;96965.41;4225571;28;5909;-77
2022/12/06 08:21:39;;;;;;;;;;;;;;;9.10;59.79;96970.16;4223173;28;5627;-77
2022/12/06 08:23:42;;;;;;;;;;;;;;;9.16;59.44;96974.69;4222022;28;5613;-78
2022/12/06 08:25:45;;;;;;;;;;;;;;;9.20;59.56;96965.44;4215981;28;5652;-76
2022/12/06 08:27:48;;;;;;;;;;;;;;;9.23;59.49;96975.63;4217960;28;5702;-75
2022/12/06 08:30:00;;;;;;;;;;;;;;;9.26;59.24;96974.44;4214069;28;5810;-77
2022/12/06 08:32:03;;;;;;;;;;;;;;;9.27;59.31;96966.34;4224596;28;5648;-76
2022/12/06 08:34:06;;;;;;;;;;;;;;;9.27;59.18;96974.25;4230501;28;5742;-76
2022/12/06 08:36:12;;;;;;;;;;;;;;;9.30;59.17;96965.19;4217259;28;7426;-76
2022/12/06 08:38:16;;;;;;;;;;;;;;;9.32;58.86;96961.34;4215439;28;5737;-76
2022/12/06 08:40:21;;;;;;;;;;;;;;;9.35;58.96;96962.81;4220478;28;5823;-76
2022/12/06 08:42:24;;;;;;;;;;;;;;;9.36;58.69;96964.44;4197978;28;5672;-75
2022/12/06 08:44:28;;;;;;;;;;;;;;;9.39;58.50;96968.53;4214943;28;5811;-76
2022/12/06 08:46:34;;;;;;;;;;;;;;;9.40;58.73;96975.44;4212295;28;5753;-75
2022/12/06 08:48:37;;;;;;;;;;;;;;;9.41;58.62;96970.00;4225702;28;5621;-75
2022/12/06 08:50:45;;;;;;;;;;;;;;;9.43;58.28;96970.66;4220393;28;5692;-76
2022/12/06 08:52:49;;;;;;;;;;;;;;;9.44;58.69;96976.75;4225360;28;5639;-76
2022/12/06 08:54:52;;;;;;;;;;;;;;;9.47;58.68;96979.00;4225525;28;5620;-76
2022/12/06 08:56:55;;;;;;;;;;;;;;;9.48;58.10;96978.00;4216288;28;5167;-76
2022/12/06 08:58:58;;;;;;;;;;;;;;;9.48;58.24;96975.38;4211303;28;7660;-76
2022/12/06 09:01:01;;;;;;;;;;;;;;;9.47;58.01;96981.66;4207624;28;5645;-77
2022/12/06 09:03:05;;;;;;;;;;;;;;;9.47;58.11;96977.19;4215214;28;5604;-78
2022/12/06 09:05:09;;;;;;;;;;;;;;;9.51;57.80;96977.63;4208741;28;5742;-76
2022/12/06 09:07:12;;;;;;;;;;;;;;;9.51;57.84;96978.47;4216613;28;5711;-76
2022/12/06 09:09:18;;;;;;;;;;;;;;;9.50;58.11;96978.63;4208549;28;5766;-76
2022/12/06 09:11:21;;;;;;;;;;;;;;;9.52;57.62;96981.94;4210855;28;5668;-76
2022/12/06 09:13:24;;;;;;;;;;;;;;;9.49;58.04;96984.91;4207428;28;5934;-76
2022/12/06 09:15:26;;;;;;;;;;;;;;;9.49;57.61;96984.91;4202244;28;5802;-76
2022/12/06 09:17:29;;;;;;;;;;;;;;;9.49;57.94;96984.91;4204843;28;5695;-75
2022/12/06 09:19:33;;;;;;;;;;;;;;;9.50;57.70;96976.81;4216855;28;5612;-77
2022/12/06 09:21:41;;;;;;;;;;;;;;;9.51;57.75;96981.13;4217731;28;6327;-76
2022/12/06 09:23:44;;;;;;;;;;;;;;;9.52;57.63;96984.56;4209341;28;5635;-76
2022/12/06 09:25:47;;;;;;;;;;;;;;;9.52;57.51;96984.56;4218432;28;5601;-77
2022/12/06 09:27:50;;;;;;;;;;;;;;;9.52;57.54;96977.47;4218308;28;5708;-76
2022/12/06 09:29:53;;;;;;;;;;;;;;;9.54;57.37;96987.84;4218633;28;5620;-76
2022/12/06 09:31:56;;;;;;;;;;;;;;;9.52;57.43;96995.13;4206656;28;6334;-76
2022/12/06 09:33:59;;;;;;;;;;;;;;;9.49;57.58;96990.19;4212102;28;5640;-76
2022/12/06 09:36:08;;;;;;;;;;;;;;;9.50;57.27;96990.00;4208850;28;5783;-76
2022/12/06 09:38:13;;;;;;;;;;;;;;;9.50;57.15;96991.84;4201593;28;5620;-76
2022/12/06 09:40:24;;;;;;;;;;;;;;;9.48;57.21;96993.84;4207150;28;5830;-75
2022/12/06 09:42:54;;;;;;;;;;;;;;;9.45;56.81;96992.38;4206272;28;5683;-75
2022/12/06 09:45:29;;;;;;;;;;;;;;;9.45;56.89;96991.56;4210533;28;5692;-76
2022/12/06 09:47:49;;;;;;;;;;;;;;;9.43;56.79;97002.31;4183253;28;5703;-76
2022/12/06 09:50:04;;;;;;;;;;;;;;;9.46;56.74;97001.13;4192670;28;5654;-76
2022/12/06 09:52:39;;;;;;;;;;;;;;;9.47;56.49;97003.56;4202662;28;5711;-76
2022/12/06 09:54:55;;;;;;;;;;;;;;;9.48;56.73;97001.75;4216229;28;5719;-76
2022/12/06 09:57:08;;;;;;;;;;;;;;;9.46;56.36;96995.84;4210026;28;5700;-76
2022/12/06 09:59:19;;;;;;;;;;;;;;;9.46;56.38;96995.84;4201875;28;5738;-75
2022/12/06 10:01:31;;;;;;;;;;;;;;;9.45;56.40;96999.50;4206065;28;5751;-76
2022/12/06 10:03:56;;;;;;;;;;;;;;;9.44;56.38;96997.84;4213013;28;5617;-77
2022/12/06 10:06:01;;;;;;;;;;;;;;;9.47;56.21;96994.84;4218301;28;5609;-76
2022/12/06 10:08:21;;;;;;;;;;;;;;;9.49;56.15;96984.91;4216735;28;5620;-76
2022/12/06 10:10:34;;;;;;;;;;;;;;;9.52;56.09;96987.22;4213327;28;5617;-77
2022/12/06 10:12:52;;;;;;;;;;;;;;;9.52;56.07;96984.56;4196105;28;5814;-75
2022/12/06 10:15:13;;;;;;;;;;;;;;;9.54;55.97;96987.84;4211312;28;5715;-76
2022/12/06 10:17:27;;;;;;;;;;;;;;;9.55;55.89;96985.03;4212939;28;5862;-76
2022/12/06 10:19:39;;;;;;;;;;;;;;;9.55;55.99;96986.84;4201281;28;5636;-76
2022/12/06 10:21:53;;;;;;;;;;;;;;;9.53;55.84;96987.03;4210527;28;5712;-76
2022/12/06 10:24:09;;;;;;;;;;;;;;;9.52;55.95;96985.41;4201744;28;5675;-76
2022/12/06 10:26:15;;;;;;;;;;;;;;;9.54;55.62;96986.03;4215581;28;5767;-77
2022/12/06 10:28:31;;;;;;;;;;;;;;;9.53;55.70;96980.94;4213639;28;5791;-77
2022/12/06 10:30:40;;;;;;;;;;;;;;;9.56;55.53;96985.84;4214962;28;5613;-76
2022/12/06 10:32:51;;;;;;;;;;;;;;;9.58;55.80;96981.19;4200633;28;5727;-77
2022/12/06 10:34:56;;;;;;;;;;;;;;;9.57;55.43;96974.28;4204102;28;5620;-76
2022/12/06 10:37:08;;;;;;;;;;;;;;;9.56;55.51;96975.28;4211709;28;5786;-77
2022/12/06 10:39:21;;;;;;;;;;;;;;;9.55;55.62;96973.66;4210712;28;5613;-76
2022/12/06 10:41:31;;;;;;;;;;;;;;;9.55;55.48;96971.00;4206463;28;6285;-76
2022/12/06 10:43:44;;;;;;;;;;;;;;;9.59;55.28;96969.63;4204202;28;5810;-76
2022/12/06 10:48:20;;;;;;;;;;;;;;;9.57;55.28;96956.63;4216590;28;5760;-76
2022/12/06 10:50:28;;;;;;;;;;;;;;;9.54;55.05;96962.28;4207674;28;5631;-77
2022/12/06 10:52:38;;;;;;;;;;;;;;;9.57;55.16;96966.38;4207026;28;5738;-76
2022/12/06 10:54:52;;;;;;;;;;;;;;;9.57;55.01;96966.38;4212970;28;5704;-76
2022/12/06 10:56:58;;;;;;;;;;;;;;;9.58;54.86;96965.34;4214653;28;5617;-76
2022/12/06 10:59:09;;;;;;;;;;;;;;;9.58;54.90;96954.81;4193261;28;5770;-76
2022/12/06 11:01:18;;;;;;;;;;;;;;;9.58;54.74;96965.34;4200540;28;5632;-76
2022/12/06 11:03:27;;;;;;;;;;;;;;;9.60;54.95;96950.16;4202753;28;5617;-76
2022/12/06 11:05:36;;;;;;;;;;;;;;;9.60;54.94;96950.97;4217802;28;5612;-75
2022/12/06 11:07:43;;;;;;;;;;;;;;;9.62;54.67;96956.88;4214115;28;5741;-76
2022/12/06 11:09:51;;;;;;;;;;;;;;;9.66;55.05;96951.25;4211975;28;5625;-75
2022/12/06 11:11:53;;;;;;;;;;;;;;;9.66;54.67;96959.19;4212781;28;5774;-76
2022/12/06 11:14:01;;;;;;;;;;;;;;;9.66;54.55;96949.44;4203984;28;6326;-76
2022/12/06 11:16:09;;;;;;;;;;;;;;;9.64;54.59;96946.16;4209015;28;6322;-76
2022/12/06 11:18:18;;;;;;;;;;;;;;;9.64;54.64;96943.53;4215097;28;5604;-76
2022/12/06 11:20:27;;;;;;;;;;;;;;;9.67;54.76;96942.34;4217086;28;6308;-76
2022/12/06 11:22:38;;;;;;;;;;;;;;;9.65;54.57;96934.59;4205234;28;5759;-76
2022/12/06 11:24:49;;;;;;;;;;;;;;;9.66;54.33;96940.69;4215906;28;5794;-77
2022/12/06 11:27:01;;;;;;;;;;;;;;;9.66;54.70;96933.59;4212423;28;5867;-76
2022/12/06 11:29:09;;;;;;;;;;;;;;;9.70;54.50;96928.75;4204721;28;5707;-76
2022/12/06 11:31:24;;;;;;;;;;;;;;;9.69;54.29;96927.94;4213498;28;5699;-76
2022/12/06 11:33:31;;;;;;;;;;;;;;;9.63;54.22;96929.50;4210649;28;5683;-76
2022/12/06 11:35:34;;;;;;;;;;;;;;;9.63;54.21;96933.97;4209205;28;5708;-77
2022/12/06 11:37:37;;;;;;;;;;;;;;;9.62;54.25;96921.75;4201739;28;5796;-77
2022/12/06 11:39:47;;;;;;;;;;;;;;;9.64;54.28;96919.78;4215948;28;5730;-75
2022/12/06 11:41:56;;;;;;;;;;;;;;;9.61;54.24;96925.41;4204981;28;5742;-76
2022/12/06 11:43:59;;;;;;;;;;;;;;;9.58;54.33;96910.75;4206618;28;5656;-78
2022/12/06 11:46:03;;;;;;;;;;;;;;;9.57;54.24;96918.84;4209152;28;5624;-77
2022/12/06 11:48:14;;;;;;;;;;;;;;;9.59;54.01;96919.47;4217103;28;5771;-77
2022/12/06 11:50:20;;;;;;;;;;;;;;;9.60;54.33;96908.75;4208451;28;5715;-77
2022/12/06 11:52:30;;;;;;;;;;;;;;;9.60;54.04;96913.19;4208376;28;5635;-77
2022/12/06 11:54:41;;;;;;;;;;;;;;;9.60;54.11;96902.66;4205224;28;5774;-77
2022/12/06 11:56:50;;;;;;;;;;;;;;;9.62;54.31;96904.09;4209316;28;5707;-77
2022/12/06 11:59:19;;;;;;;;;;;;;;;9.59;54.00;96901.00;4209081;28;6518;-77
2022/12/06 12:01:40;;;;;;;;;;;;;;;9.58;54.19;96894.91;4210497;28;5704;-76
2022/12/06 12:03:48;;;;;;;;;;;;;;;9.57;54.18;96892.47;4206112;28;5644;-76
2022/12/06 12:05:51;;;;;;;;;;;;;;;9.57;54.07;96885.38;4201772;28;5734;-77
2022/12/06 12:07:58;;;;;;;;;;;;;;;9.58;54.04;96886.19;4209293;28;5628;-77
2022/12/06 12:10:04;;;;;;;;;;;;;;;9.58;54.03;96889.63;4208769;28;5735;-76
2022/12/06 12:12:16;;;;;;;;;;;;;;;9.59;53.91;96879.91;4210783;28;5620;-76
2022/12/06 12:14:26;;;;;;;;;;;;;;;9.58;54.34;96872.97;4195350;28;5755;-76
2022/12/06 12:16:34;;;;;;;;;;;;;;;9.58;53.90;96865.06;4202461;28;6447;-76
2022/12/06 12:18:41;;;;;;;;;;;;;;;9.58;53.97;96862.44;4205783;28;5770;-72
2022/12/06 12:20:46;;;;;;;;;;;;;;;9.58;54.02;96863.25;4204868;28;5609;-77
2022/12/06 12:23:00;;;;;;;;;;;;;;;9.57;53.98;96858.97;4211356;28;5654;-75
2022/12/06 12:25:20;;;;;;;;;;;;;;;9.62;53.92;96856.56;4202120;28;5637;-74
2022/12/06 12:27:34;;;;;;;;;;;;;;;9.64;53.88;96856.41;4215885;28;5763;-75
2022/12/06 12:29:38;;;;;;;;;;;;;;;9.64;53.71;96856.41;4211023;28;5798;-74
2022/12/06 12:32:09;;;;;;;;;;;;;;;9.60;53.97;96855.94;4207258;28;5782;-74
2022/12/06 12:34:13;;;;;;;;;;;;;;;9.62;54.02;96853.94;4206031;28;5786;-76
2022/12/06 12:36:22;;;;;;;;;;;;;;;9.61;53.79;96856.78;4208507;28;5812;-75
2022/12/06 12:38:35;;;;;;;;;;;;;;;9.59;54.00;96853.50;4203814;28;5714;-76
2022/12/06 12:40:43;;;;;;;;;;;;;;;9.60;53.86;96847.22;4212995;28;5777;-76
2022/12/06 12:42:46;;;;;;;;;;;;;;;9.62;53.71;96847.84;4211703;28;5096;-76
2022/12/06 12:44:56;;;;;;;;;;;;;;;9.60;53.94;96855.13;4203995;28;5699;-76
2022/12/06 12:47:01;;;;;;;;;;;;;;;9.60;53.94;96855.94;4206263;28;5619;-77
2022/12/06 12:49:22;;;;;;;;;;;;;;;9.61;53.97;96856.78;4203018;28;5710;-76
2022/12/06 12:51:32;;;;;;;;;;;;;;;9.62;53.83;96858.41;4211057;28;5649;-76
2022/12/06 12:53:37;;;;;;;;;;;;;;;9.64;53.97;96861.69;4203059;28;5640;-76
2022/12/06 12:55:41;;;;;;;;;;;;;;;9.66;54.01;96859.69;4211199;28;5655;-76
2022/12/06 12:57:46;;;;;;;;;;;;;;;9.66;53.54;96846.50;4202883;28;5687;-77
2022/12/06 12:59:48;;;;;;;;;;;;;;;9.66;53.85;96854.41;4207713;28;6341;-77
2022/12/06 13:01:56;;;;;;;;;;;;;;;9.65;53.57;96847.50;4205189;28;5621;-79
2022/12/06 13:04:03;;;;;;;;;;;;;;;9.65;53.76;96852.78;4203309;28;5691;-76
2022/12/06 13:06:08;;;;;;;;;;;;;;;9.67;53.78;96855.22;4200486;28;5699;-76
2022/12/06 13:08:16;;;;;;;;;;;;;;;9.66;53.81;96849.13;4206826;28;5707;-76
2022/12/06 13:10:27;;;;;;;;;;;;;;;9.66;53.61;96843.84;4207280;28;5705;-75
2022/12/06 13:12:34;;;;;;;;;;;;;;;9.67;53.86;96834.09;4212554;28;5735;-76
2022/12/06 13:14:47;;;;;;;;;;;;;;;9.67;53.67;96842.84;4202749;28;5847;-77
2022/12/06 13:16:54;;;;;;;;;;;;;;;9.68;53.78;96841.03;4202622;28;5620;-77
2022/12/06 13:18:58;;;;;;;;;;;;;;;9.66;53.62;96833.28;4212077;28;5608;-76
2022/12/06 13:21:12;;;;;;;;;;;;;;;9.65;53.97;96834.28;4211155;28;5723;-76
2022/12/06 13:23:18;;;;;;;;;;;;;;;9.65;53.68;96831.66;4207418;28;5631;-76
2022/12/06 13:25:20;;;;;;;;;;;;;;;9.63;53.93;96829.22;4213726;28;5620;-76
2022/12/06 13:27:25;;;;;;;;;;;;;;;9.66;53.65;96835.13;4217512;28;5717;-76
2022/12/06 13:29:33;;;;;;;;;;;;;;;9.67;53.68;96829.66;4210834;28;5620;-77
2022/12/06 13:31:39;;;;;;;;;;;;;;;9.68;53.50;96831.28;4204003;28;5782;-76
2022/12/06 13:33:49;;;;;;;;;;;;;;;9.68;53.93;96830.47;4207945;28;5616;-75
2022/12/06 13:36:00;;;;;;;;;;;;;;;9.68;53.79;96833.09;4208637;28;5867;-74
2022/12/06 13:38:20;;;;;;;;;;;;;;;9.66;53.85;96824.56;4211978;28;5818;-75
2022/12/06 13:40:39;;;;;;;;;;;;;;;9.71;53.55;96820.34;4203641;28;5789;-76
2022/12/06 13:42:45;;;;;;;;;;;;;;;9.73;53.58;96826.25;4207222;28;5145;-76
2022/12/06 13:44:58;;;;;;;;;;;;;;;9.73;53.72;96822.78;4205409;28;7760;-75
2022/12/06 13:47:47;;;;;;;;;;;;;;;9.74;53.59;96821.78;4209147;28;5639;-76
2022/12/06 13:49:52;;;;;;;;;;;;;;;9.74;53.72;96814.72;4207880;28;5671;-75
2022/12/06 13:51:55;;;;;;;;;;;;;;;9.70;53.63;96816.06;4216542;28;5724;-75
2022/12/06 13:54:29;;;;;;;;;;;;;;;9.72;53.81;96823.78;4213823;28;5723;-75
2022/12/06 13:56:38;;;;;;;;;;;;;;;9.72;53.81;96810.59;4218005;28;5259;-75
2022/12/06 13:58:48;;;;;;;;;;;;;;;9.71;53.65;96820.34;4204533;28;7230;-74
2022/12/06 14:00:53;;;;;;;;;;;;;;;9.68;53.71;96810.16;4211680;28;5716;-75
2022/12/06 14:02:57;;;;;;;;;;;;;;;9.68;53.86;96819.91;4206129;28;5649;-76
2022/12/06 14:05:01;;;;;;;;;;;;;;;9.69;53.79;96817.06;4209615;28;5609;-76
2022/12/06 14:07:06;;;;;;;;;;;;;;;9.69;53.52;96811.78;4218737;28;5617;-76
2022/12/06 14:09:09;;;;;;;;;;;;;;;9.69;53.72;96816.25;4213567;28;5613;-76
2022/12/06 14:11:16;;;;;;;;;;;;;;;9.70;53.70;96821.34;4211832;28;5092;-76
2022/12/06 14:13:21;;;;;;;;;;;;;;;9.70;53.76;96823.97;4208208;28;5690;-77
2022/12/06 14:15:24;;;;;;;;;;;;;;;9.72;53.75;96815.88;4207168;28;5625;-76
2022/12/06 14:17:35;;;;;;;;;;;;;;;9.71;53.72;96812.41;4204953;28;5616;-75
2022/12/06 14:20:00;;;;;;;;;;;;;;;9.70;53.54;96808.16;4208188;28;5842;-76
2022/12/06 14:22:18;;;;;;;;;;;;;;;9.70;53.73;96816.06;4216770;28;5625;-76
2022/12/06 14:24:28;;;;;;;;;;;;;;;9.70;53.88;96809.97;4196176;28;5654;-77
2022/12/06 14:26:33;;;;;;;;;;;;;;;9.70;54.00;96817.88;4214984;28;5609;-76
2022/12/06 14:28:36;;;;;;;;;;;;;;;9.71;53.63;96816.88;4217940;28;6394;-76
2022/12/06 14:30:39;;;;;;;;;;;;;;;9.69;53.94;96814.44;4206091;28;5609;-76
2022/12/06 14:32:43;;;;;;;;;;;;;;;9.67;53.83;96813.81;4217488;28;5787;-76
2022/12/06 14:34:47;;;;;;;;;;;;;;;9.71;53.51;96808.97;4217914;28;5700;-76
2022/12/06 14:36:50;;;;;;;;;;;;;;;9.70;53.76;96812.59;4213644;28;5635;-76
2022/12/06 14:39:06;;;;;;;;;;;;;;;9.70;53.79;96816.06;4204098;28;5799;-76
2022/12/06 14:43:41;;;;;;;;;;;;;;;9.72;53.68;96800.84;4217674;28;5770;-76
2022/12/06 14:45:45;;;;;;;;;;;;;;;9.73;53.75;96810.41;4217774;28;6295;-77
2022/12/06 14:47:49;;;;;;;;;;;;;;;9.73;53.54;96812.22;4210092;28;5835;-76
2022/12/06 14:52:21;;;;;;;;;;;;;;;9.73;53.51;96801.66;4217798;28;5138;-76
2022/12/06 14:54:36;;;;;;;;;;;;;;;9.74;53.63;96795.38;4212751;28;6334;-76
2022/12/06 14:56:38;;;;;;;;;;;;;;;9.73;53.87;96791.91;4217099;28;5641;-75
2022/12/06 14:58:42;;;;;;;;;;;;;;;9.69;53.62;96785.41;4199425;28;5661;-76
2022/12/06 15:00:53;;;;;;;;;;;;;;;9.71;53.77;96795.75;4210894;28;5829;-75
2022/12/06 15:03:21;;;;;;;;;;;;;;;9.68;53.98;96789.03;4205804;28;5862;-76
2022/12/06 15:05:36;;;;;;;;;;;;;;;9.70;53.98;96796.78;4217525;28;5613;-77
2022/12/06 15:07:41;;;;;;;;;;;;;;;9.72;53.76;96789.47;4212472;28;5093;-76
2022/12/06 15:09:47;;;;;;;;;;;;;;;9.71;53.76;96788.66;4207983;28;5688;-78
2022/12/06 15:14:13;;;;;;;;;;;;;;;9.71;53.82;96790.47;4208160;28;5627;-75
2022/12/06 15:16:16;;;;;;;;;;;;;;;9.70;53.85;96794.13;4218280;28;5604;-76
2022/12/06 15:18:35;;;;;;;;;;;;;;;9.70;53.91;96794.13;4217208;28;5104;-76
2022/12/06 15:20:40;;;;;;;;;;;;;;;9.68;53.87;96802.25;4216593;28;7765;-77
2022/12/06 15:22:47;;;;;;;;;;;;;;;9.68;53.85;96801.44;4206312;28;5616;-75
2022/12/06 15:24:55;;;;;;;;;;;;;;;9.69;53.86;96797.78;4214590;28;6389;-76
2022/12/06 15:26:57;;;;;;;;;;;;;;;9.71;53.77;96803.69;4215924;28;5624;-76
2022/12/06 15:29:00;;;;;;;;;;;;;;;9.70;54.00;96808.16;4208424;28;5750;-77
2022/12/06 15:31:04;;;;;;;;;;;;;;;9.69;53.89;96810.97;4216320;28;5727;-76
2022/12/06 15:33:15;;;;;;;;;;;;;;;9.66;53.69;96812.19;4216568;28;5605;-76
2022/12/06 15:35:18;;;;;;;;;;;;;;;9.66;53.91;96812.19;4214122;28;5632;-77
2022/12/06 15:37:22;;;;;;;;;;;;;;;9.68;53.91;96815.44;4207007;28;5731;-76
2022/12/06 15:39:41;;;;;;;;;;;;;;;9.68;54.04;96810.16;4207965;28;5703;-77
2022/12/06 15:41:45;;;;;;;;;;;;;;;9.68;54.04;96802.25;4211949;28;5648;-77
2022/12/06 15:43:49;;;;;;;;;;;;;;;9.68;53.85;96804.06;4209761;28;5617;-75
2022/12/06 15:45:53;;;;;;;;;;;;;;;9.67;53.79;96797.16;4211736;28;5696;-77
2022/12/06 15:47:58;;;;;;;;;;;;;;;9.66;53.75;96801.63;4201523;28;5877;-77
2022/12/06 15:50:02;;;;;;;;;;;;;;;9.63;53.76;96796.72;4203886;28;5668;-77
2022/12/06 15:52:11;;;;;;;;;;;;;;;9.62;53.83;96800.34;4205086;28;5616;-77
2022/12/06 15:54:17;;;;;;;;;;;;;;;9.60;54.00;96810.25;4211784;28;5668;-77
2022/12/06 15:56:21;;;;;;;;;;;;;;;9.58;53.88;96809.63;4210397;28;5703;-77
2022/12/06 15:58:25;;;;;;;;;;;;;;;9.56;53.97;96812.47;4205662;28;5656;-76
2022/12/06 16:00:31;;;;;;;;;;;;;;;9.56;53.96;96816.94;4205708;28;5647;-76
2022/12/06 16:02:34;;;;;;;;;;;;;;;9.54;53.78;96811.84;4208519;28;5712;-78
2022/12/06 16:04:37;;;;;;;;;;;;;;;9.54;53.79;96813.66;4207694;28;5655;-78
2022/12/06 16:06:41;;;;;;;;;;;;;;;9.53;53.81;96812.84;4210288;28;5706;-77
2022/12/06 16:08:44;;;;;;;;;;;;;;;9.52;54.06;96810.41;4217242;28;5798;-76
2022/12/06 16:10:47;;;;;;;;;;;;;;;9.52;54.13;96807.75;4195961;28;5640;-77
2022/12/06 16:13:23;;;;;;;;;;;;;;;9.50;53.80;96807.91;4214969;28;5829;-76
2022/12/06 16:15:28;;;;;;;;;;;;;;;9.48;54.09;96804.66;4214179;28;5799;-77
2022/12/06 16:17:31;;;;;;;;;;;;;;;9.48;53.81;96801.19;4209195;28;5747;-78
2022/12/06 16:21:52;;;;;;;;;;;;;;;9.46;53.87;96813.75;4196758;28;5790;-75
2022/12/06 16:24:02;;;;;;;;;;;;;;;9.45;54.02;96810.31;4213942;28;5708;-76
2022/12/06 16:26:20;;;;;;;;;;;;;;;9.44;53.87;96813.97;4207801;28;5737;-76
2022/12/06 16:28:23;;;;;;;;;;;;;;;9.43;54.02;96806.22;4209621;28;5742;-76
2022/12/06 16:30:35;;;;;;;;;;;;;;;9.44;54.06;96805.22;4213428;28;5615;-76
2022/12/06 16:32:38;;;;;;;;;;;;;;;9.42;54.39;96804.59;4210407;28;5614;-76
2022/12/06 16:34:41;;;;;;;;;;;;;;;9.38;53.87;96800.66;4215912;28;5076;-76
2022/12/06 16:36:57;;;;;;;;;;;;;;;9.38;54.29;96800.66;4214396;28;7776;-76
2022/12/06 16:39:03;;;;;;;;;;;;;;;9.39;54.10;96800.47;4212039;28;5629;-76
2022/12/06 16:41:09;;;;;;;;;;;;;;;9.39;54.01;96804.94;4212177;28;5620;-75
2022/12/06 16:43:12;;;;;;;;;;;;;;;9.40;54.35;96806.56;4217479;28;5613;-77
2022/12/06 16:45:18;;;;;;;;;;;;;;;9.39;54.07;96802.31;4219246;28;6299;-77
2022/12/06 16:47:23;;;;;;;;;;;;;;;9.39;54.02;96799.66;4202953;28;5639;-76
2022/12/06 16:49:26;;;;;;;;;;;;;;;9.39;53.87;96794.38;4206372;28;5088;-77
2022/12/06 16:51:49;;;;;;;;;;;;;;;9.38;53.99;96793.56;4218999;28;7672;-77
2022/12/06 16:53:52;;;;;;;;;;;;;;;9.39;54.01;96799.66;4219227;28;5676;-76
2022/12/06 16:55:55;;;;;;;;;;;;;;;9.37;54.26;96799.84;4215537;28;5646;-76
2022/12/06 16:57:58;;;;;;;;;;;;;;;9.38;54.20;96800.66;4219834;28;5711;-76
2022/12/06 17:00:01;;;;;;;;;;;;;;;9.37;53.99;96791.13;4206189;28;5101;-77
2022/12/06 17:02:04;;;;;;;;;;;;;;;9.37;54.02;96793.75;4202728;28;5632;-76
2022/12/06 17:04:18;;;;;;;;;;;;;;;9.36;53.85;96794.78;4212750;28;6519;-77
2022/12/06 17:06:21;;;;;;;;;;;;;;;9.34;54.04;96797.59;4213066;28;5789;-76
2022/12/06 17:08:24;;;;;;;;;;;;;;;9.34;54.33;96803.69;4201197;28;5635;-77
2022/12/06 17:10:28;;;;;;;;;;;;;;;9.32;54.15;96795.16;4212429;28;5704;-77
2022/12/06 17:12:30;;;;;;;;;;;;;;;9.33;54.07;96796.78;4196971;28;5739;-77
2022/12/06 17:14:34;;;;;;;;;;;;;;;9.33;54.03;96801.25;4215957;28;5608;-77
2022/12/06 17:16:39;;;;;;;;;;;;;;;9.33;54.32;96803.88;4215574;28;5617;-72
2022/12/06 17:18:42;;;;;;;;;;;;;;;9.30;54.04;96797.16;4214689;28;5668;-78
2022/12/06 17:20:46;;;;;;;;;;;;;;;9.29;54.10;96800.81;4216874;28;5738;-78
2022/12/06 17:22:49;;;;;;;;;;;;;;;9.29;53.83;96800.81;4215442;28;5609;-77
2022/12/06 17:24:54;;;;;;;;;;;;;;;9.29;54.34;96797.34;4190683;28;5664;-73
2022/12/06 17:26:57;;;;;;;;;;;;;;;9.28;54.15;96799.13;4212663;28;5838;-74
2022/12/06 17:29:01;;;;;;;;;;;;;;;9.29;53.98;96800.81;4203819;28;5625;-74
2022/12/06 17:31:08;;;;;;;;;;;;;;;9.30;54.16;96801.63;4211010;28;5624;-74
2022/12/06 17:33:11;;;;;;;;;;;;;;;9.29;54.35;96798.16;4211490;28;5617;-74
2022/12/06 17:35:13;;;;;;;;;;;;;;;9.30;54.33;96802.44;4206357;28;6338;-74
2022/12/06 17:37:18;;;;;;;;;;;;;;;9.30;54.07;96791.06;4208497;28;5844;-74
2022/12/06 17:39:21;;;;;;;;;;;;;;;9.30;54.19;96797.16;4216268;28;5795;-74
2022/12/06 17:43:51;;;;;;;;;;;;;;;9.28;54.37;96812.31;4164631;28;5826;-75
2022/12/06 17:45:54;;;;;;;;;;;;;;;9.28;54.05;96804.41;4204464;28;5660;-74
2022/12/06 17:47:57;;;;;;;;;;;;;;;9.29;54.05;96805.25;4208967;28;5707;-75
2022/12/06 17:50:00;;;;;;;;;;;;;;;9.27;54.26;96808.06;4205138;28;5594;-74
2022/12/06 17:52:04;;;;;;;;;;;;;;;9.28;54.23;96814.16;4211457;28;5878;-72
2022/12/06 17:54:08;;;;;;;;;;;;;;;9.27;54.23;96810.69;4212485;28;7665;-73
2022/12/06 17:56:29;;;;;;;;;;;;;;;9.28;54.31;96801.78;4211827;28;5910;-73
2022/12/06 17:58:32;;;;;;;;;;;;;;;9.28;54.21;96812.31;4211630;28;5814;-73
2022/12/06 18:00:34;;;;;;;;;;;;;;;9.28;54.20;96811.50;4216640;28;5731;-73
2022/12/06 18:02:37;;;;;;;;;;;;;;;9.25;54.28;96804.78;4213979;28;5707;-73
2022/12/06 18:04:42;;;;;;;;;;;;;;;9.27;54.28;96807.25;4210793;28;5718;-73
2022/12/06 18:06:44;;;;;;;;;;;;;;;9.26;54.25;96814.34;4212326;28;5088;-73
2022/12/06 18:08:47;;;;;;;;;;;;;;;9.28;54.13;96814.16;4213601;28;5726;-74
2022/12/06 18:10:57;;;;;;;;;;;;;;;9.27;54.15;96812.50;4211757;28;5605;-75
2022/12/06 18:13:00;;;;;;;;;;;;;;;9.27;54.41;96813.34;4215138;28;5637;-76
2022/12/06 18:15:36;;;;;;;;;;;;;;;9.28;54.51;96812.31;4205095;28;5628;-77
2022/12/06 18:17:28;;;;;;;;;;;;;;;9.28;54.51;96817.59;4201867;28;5635;-76
2022/12/06 18:19:32;;;;;;;;;;;;;;;9.29;54.21;96811.34;4210830;28;5655;-75
2022/12/06 18:21:35;;;;;;;;;;;;;;;9.30;54.24;96815.63;4202157;28;5454;-76
2022/12/06 18:23:39;;;;;;;;;;;;;;;9.27;54.65;96813.34;4201540;28;7171;-75
2022/12/06 18:26:07;;;;;;;;;;;;;;;9.29;54.43;96806.06;4202366;28;5807;-76
2022/12/06 18:28:10;;;;;;;;;;;;;;;9.28;54.44;96809.69;4203446;28;5628;-77
2022/12/06 18:30:13;;;;;;;;;;;;;;;9.31;54.46;96819.91;4206188;28;5786;-77
2022/12/06 18:32:15;;;;;;;;;;;;;;;9.31;54.58;96819.09;4209119;28;5625;-76
2022/12/06 18:34:19;;;;;;;;;;;;;;;9.32;54.41;96810.97;4206801;28;5782;-76
2022/12/06 18:36:22;;;;;;;;;;;;;;;9.34;54.74;96811.59;4211107;28;5623;-78
2022/12/06 18:38:24;;;;;;;;;;;;;;;9.35;54.47;96809.78;4208167;28;5648;-76
2022/12/06 18:40:31;;;;;;;;;;;;;;;9.36;54.61;96810.59;4213389;28;5632;-77
2022/12/06 18:42:36;;;;;;;;;;;;;;;9.37;54.55;96813.06;4211357;28;5639;-78
2022/12/06 18:44:40;;;;;;;;;;;;;;;9.38;54.80;96813.88;4216140;28;5682;-75
2022/12/06 18:46:42;;;;;;;;;;;;;;;9.40;54.48;96819.78;4213157;28;5712;-78
2022/12/06 18:48:48;;;;;;;;;;;;;;;9.41;54.66;96810.88;4217262;28;5737;-78
2022/12/06 18:50:51;;;;;;;;;;;;;;;9.41;54.71;96814.34;4209120;28;5857;-73
2022/12/06 18:52:54;;;;;;;;;;;;;;;9.43;54.78;96812.31;4211841;28;7144;-74
2022/12/06 18:54:56;;;;;;;;;;;;;;;9.45;54.38;96818.22;4202986;28;5641;-76
2022/12/06 18:56:59;;;;;;;;;;;;;;;9.48;54.47;96814.41;4209879;28;5778;-75
2022/12/06 18:59:06;;;;;;;;;;;;;;;9.50;54.66;96817.66;4210999;28;5596;-81
2022/12/06 19:01:12;;;;;;;;;;;;;;;9.50;54.55;96815.03;4210243;28;5711;-74
2022/12/06 19:03:15;;;;;;;;;;;;;;;9.51;54.30;96811.38;4206866;28;5706;-76
2022/12/06 19:05:18;;;;;;;;;;;;;;;9.50;54.50;96815.84;4202663;28;5632;-77
2022/12/06 19:07:41;;;;;;;;;;;;;;;9.51;54.49;96814.00;4207195;28;5625;-76
2022/12/06 19:09:43;;;;;;;;;;;;;;;9.51;54.63;96808.72;4210602;28;5834;-74
2022/12/06 19:11:48;;;;;;;;;;;;;;;9.51;54.62;96819.28;4203497;28;5730;-74
2022/12/06 19:13:52;;;;;;;;;;;;;;;9.49;54.36;96816.03;4200668;28;5860;-73
2022/12/06 19:16:01;;;;;;;;;;;;;;;9.49;54.65;96821.31;4201593;28;5710;-73
2022/12/06 19:18:05;;;;;;;;;;;;;;;9.48;54.61;96815.22;4211177;28;5665;-75
2022/12/06 19:20:08;;;;;;;;;;;;;;;9.48;54.52;96824.94;4214988;28;5624;-72
2022/12/06 19:22:11;;;;;;;;;;;;;;;9.47;54.74;96828.59;4208877;28;5696;-73
2022/12/06 19:24:16;;;;;;;;;;;;;;;9.48;54.36;96824.94;4213485;28;5786;-74
2022/12/06 19:26:19;;;;;;;;;;;;;;;9.47;54.78;96824.13;4210805;28;5814;-75
2022/12/06 19:28:21;;;;;;;;;;;;;;;9.49;54.50;96823.94;4204836;28;5719;-75
2022/12/06 19:30:24;;;;;;;;;;;;;;;9.49;54.63;96826.59;4200474;28;5620;-74
2022/12/06 19:32:28;;;;;;;;;;;;;;;9.48;54.42;96822.31;4206015;28;5814;-75